sensor_id;sensor_type;location;lat;lon;timestamp;P1;durP1;ratioP1;P2;durP2;ratioP2
24745;SDS011;12845;52.042;6.838;2023-04-25T00:00:17;8.43;;;3.80;;
24745;SDS011;12845;52.042;6.838;2023-04-25T00:02:43;10.00;;;4.72;;
24745;SDS011;12845;52.042;6.838;2023-04-25T00:05:08;12.80;;;4.65;;
24745;SDS011;12845;52.042;6.838;2023-04-25T00:07:34;11.73;;;5.18;;
24745;SDS011;12845;52.042;6.838;2023-04-25T00:09:59;10.77;;;5.30;;
24745;SDS011;12845;52.042;6.838;2023-04-25T00:12:25;12.35;;;5.63;;
24745;SDS011;12845;52.042;6.838;2023-04-25T00:14:53;16.60;;;5.93;;
24745;SDS011;12845;52.042;6.838;2023-04-25T00:17:18;15.48;;;6.85;;
24745;SDS011;12845;52.042;6.838;2023-04-25T00:19:44;15.90;;;5.95;;
24745;SDS011;12845;52.042;6.838;2023-04-25T00:22:11;16.33;;;6.47;;
24745;SDS011;12845;52.042;6.838;2023-04-25T00:24:37;17.90;;;6.32;;
24745;SDS011;12845;52.042;6.838;2023-04-25T00:27:02;16.73;;;6.70;;
24745;SDS011;12845;52.042;6.838;2023-04-25T00:29:28;18.00;;;6.22;;
24745;SDS011;12845;52.042;6.838;2023-04-25T00:31:53;17.65;;;6.32;;
24745;SDS011;12845;52.042;6.838;2023-04-25T00:34:18;19.45;;;6.60;;
24745;SDS011;12845;52.042;6.838;2023-04-25T00:36:44;17.70;;;6.65;;
24745;SDS011;12845;52.042;6.838;2023-04-25T00:39:09;19.55;;;6.60;;
24745;SDS011;12845;52.042;6.838;2023-04-25T00:41:35;25.33;;;7.97;;
24745;SDS011;12845;52.042;6.838;2023-04-25T00:44:01;25.63;;;7.00;;
24745;SDS011;12845;52.042;6.838;2023-04-25T00:46:29;26.30;;;8.10;;
24745;SDS011;12845;52.042;6.838;2023-04-25T00:48:55;27.48;;;7.68;;
24745;SDS011;12845;52.042;6.838;2023-04-25T00:51:21;27.63;;;8.30;;
24745;SDS011;12845;52.042;6.838;2023-04-25T00:53:47;17.88;;;7.03;;
24745;SDS011;12845;52.042;6.838;2023-04-25T00:56:14;24.80;;;7.53;;
24745;SDS011;12845;52.042;6.838;2023-04-25T00:58:41;29.10;;;6.85;;
24745;SDS011;12845;52.042;6.838;2023-04-25T01:01:07;25.20;;;7.57;;
24745;SDS011;12845;52.042;6.838;2023-04-25T01:03:33;22.90;;;6.93;;
24745;SDS011;12845;52.042;6.838;2023-04-25T01:06:01;24.40;;;7.40;;
24745;SDS011;12845;52.042;6.838;2023-04-25T01:08:27;23.13;;;7.60;;
24745;SDS011;12845;52.042;6.838;2023-04-25T01:10:53;28.30;;;8.02;;
24745;SDS011;12845;52.042;6.838;2023-04-25T01:13:18;19.77;;;7.15;;
24745;SDS011;12845;52.042;6.838;2023-04-25T01:15:44;33.20;;;7.30;;
24745;SDS011;12845;52.042;6.838;2023-04-25T01:18:10;20.73;;;7.55;;
24745;SDS011;12845;52.042;6.838;2023-04-25T01:20:35;23.08;;;7.75;;
24745;SDS011;12845;52.042;6.838;2023-04-25T01:23:03;25.35;;;7.57;;
24745;SDS011;12845;52.042;6.838;2023-04-25T01:25:29;19.42;;;6.15;;
24745;SDS011;12845;52.042;6.838;2023-04-25T01:27:56;26.42;;;6.97;;
24745;SDS011;12845;52.042;6.838;2023-04-25T01:30:22;23.20;;;7.90;;
24745;SDS011;12845;52.042;6.838;2023-04-25T01:32:48;26.63;;;6.47;;
24745;SDS011;12845;52.042;6.838;2023-04-25T01:35:14;21.20;;;6.97;;
24745;SDS011;12845;52.042;6.838;2023-04-25T01:37:40;17.60;;;6.47;;
24745;SDS011;12845;52.042;6.838;2023-04-25T01:40:08;23.90;;;7.53;;
24745;SDS011;12845;52.042;6.838;2023-04-25T01:42:35;24.17;;;7.10;;
24745;SDS011;12845;52.042;6.838;2023-04-25T01:45:02;20.90;;;6.85;;
24745;SDS011;12845;52.042;6.838;2023-04-25T01:47:28;17.08;;;6.15;;
24745;SDS011;12845;52.042;6.838;2023-04-25T01:49:54;27.20;;;7.13;;
24745;SDS011;12845;52.042;6.838;2023-04-25T01:52:20;18.02;;;6.18;;
24745;SDS011;12845;52.042;6.838;2023-04-25T01:54:45;27.00;;;6.93;;
24745;SDS011;12845;52.042;6.838;2023-04-25T01:57:11;22.10;;;6.78;;
24745;SDS011;12845;52.042;6.838;2023-04-25T01:59:37;27.67;;;7.47;;
24745;SDS011;12845;52.042;6.838;2023-04-25T02:02:02;24.42;;;6.60;;
24745;SDS011;12845;52.042;6.838;2023-04-25T02:04:31;21.80;;;5.82;;
24745;SDS011;12845;52.042;6.838;2023-04-25T02:06:57;23.17;;;6.28;;
24745;SDS011;12845;52.042;6.838;2023-04-25T02:09:22;20.92;;;6.38;;
24745;SDS011;12845;52.042;6.838;2023-04-25T02:11:48;22.80;;;6.43;;
24745;SDS011;12845;52.042;6.838;2023-04-25T02:14:13;24.95;;;6.78;;
24745;SDS011;12845;52.042;6.838;2023-04-25T02:16:39;21.33;;;5.72;;
24745;SDS011;12845;52.042;6.838;2023-04-25T02:19:04;22.92;;;6.20;;
24745;SDS011;12845;52.042;6.838;2023-04-25T02:21:30;20.15;;;6.97;;
24745;SDS011;12845;52.042;6.838;2023-04-25T02:23:56;23.73;;;6.35;;
24745;SDS011;12845;52.042;6.838;2023-04-25T02:26:21;22.83;;;5.53;;
24745;SDS011;12845;52.042;6.838;2023-04-25T02:28:48;17.20;;;5.10;;
24745;SDS011;12845;52.042;6.838;2023-04-25T02:31:14;20.10;;;4.63;;
24745;SDS011;12845;52.042;6.838;2023-04-25T02:33:40;17.58;;;5.88;;
24745;SDS011;12845;52.042;6.838;2023-04-25T02:36:05;24.48;;;5.88;;
24745;SDS011;12845;52.042;6.838;2023-04-25T02:38:31;15.95;;;5.65;;
24745;SDS011;12845;52.042;6.838;2023-04-25T02:40:56;18.30;;;4.60;;
24745;SDS011;12845;52.042;6.838;2023-04-25T02:43:22;17.17;;;5.57;;
24745;SDS011;12845;52.042;6.838;2023-04-25T02:45:47;21.13;;;5.53;;
24745;SDS011;12845;52.042;6.838;2023-04-25T02:48:12;21.63;;;5.75;;
24745;SDS011;12845;52.042;6.838;2023-04-25T02:50:38;17.92;;;5.60;;
24745;SDS011;12845;52.042;6.838;2023-04-25T02:53:03;19.55;;;5.45;;
24745;SDS011;12845;52.042;6.838;2023-04-25T02:55:28;22.83;;;5.30;;
24745;SDS011;12845;52.042;6.838;2023-04-25T02:57:54;20.60;;;6.50;;
24745;SDS011;12845;52.042;6.838;2023-04-25T03:00:20;21.05;;;6.43;;
24745;SDS011;12845;52.042;6.838;2023-04-25T03:02:47;19.67;;;5.97;;
24745;SDS011;12845;52.042;6.838;2023-04-25T03:05:12;15.35;;;6.28;;
24745;SDS011;12845;52.042;6.838;2023-04-25T03:07:37;20.52;;;4.70;;
24745;SDS011;12845;52.042;6.838;2023-04-25T03:10:04;17.48;;;4.47;;
24745;SDS011;12845;52.042;6.838;2023-04-25T03:12:32;14.00;;;4.45;;
24745;SDS011;12845;52.042;6.838;2023-04-25T03:14:58;18.77;;;5.85;;
24745;SDS011;12845;52.042;6.838;2023-04-25T03:17:23;13.38;;;4.80;;
24745;SDS011;12845;52.042;6.838;2023-04-25T03:19:48;13.63;;;5.35;;
24745;SDS011;12845;52.042;6.838;2023-04-25T03:22:14;17.98;;;5.82;;
24745;SDS011;12845;52.042;6.838;2023-04-25T03:24:39;17.35;;;5.47;;
24745;SDS011;12845;52.042;6.838;2023-04-25T03:27:05;12.20;;;5.15;;
24745;SDS011;12845;52.042;6.838;2023-04-25T03:29:30;17.35;;;6.00;;
24745;SDS011;12845;52.042;6.838;2023-04-25T03:31:56;16.00;;;5.47;;
24745;SDS011;12845;52.042;6.838;2023-04-25T03:34:21;13.63;;;5.05;;
24745;SDS011;12845;52.042;6.838;2023-04-25T03:36:46;17.00;;;5.75;;
24745;SDS011;12845;52.042;6.838;2023-04-25T03:39:12;17.13;;;4.65;;
24745;SDS011;12845;52.042;6.838;2023-04-25T03:41:37;14.68;;;5.22;;
24745;SDS011;12845;52.042;6.838;2023-04-25T03:44:03;13.70;;;6.05;;
24745;SDS011;12845;52.042;6.838;2023-04-25T03:46:28;18.85;;;5.82;;
24745;SDS011;12845;52.042;6.838;2023-04-25T03:48:54;19.20;;;5.88;;
24745;SDS011;12845;52.042;6.838;2023-04-25T03:51:19;16.00;;;5.75;;
24745;SDS011;12845;52.042;6.838;2023-04-25T03:53:44;13.48;;;4.75;;
24745;SDS011;12845;52.042;6.838;2023-04-25T03:56:10;18.77;;;6.70;;
24745;SDS011;12845;52.042;6.838;2023-04-25T03:58:35;12.18;;;5.10;;
24745;SDS011;12845;52.042;6.838;2023-04-25T04:01:00;16.02;;;5.50;;
24745;SDS011;12845;52.042;6.838;2023-04-25T04:03:28;17.15;;;5.47;;
24745;SDS011;12845;52.042;6.838;2023-04-25T04:05:53;18.95;;;6.45;;
24745;SDS011;12845;52.042;6.838;2023-04-25T04:08:19;18.33;;;6.20;;
24745;SDS011;12845;52.042;6.838;2023-04-25T04:10:44;16.27;;;6.05;;
24745;SDS011;12845;52.042;6.838;2023-04-25T04:13:10;14.82;;;6.03;;
24745;SDS011;12845;52.042;6.838;2023-04-25T04:15:35;17.48;;;5.63;;
24745;SDS011;12845;52.042;6.838;2023-04-25T04:18:00;13.93;;;5.13;;
24745;SDS011;12845;52.042;6.838;2023-04-25T04:20:28;17.83;;;6.50;;
24745;SDS011;12845;52.042;6.838;2023-04-25T04:22:55;17.60;;;6.10;;
24745;SDS011;12845;52.042;6.838;2023-04-25T04:25:20;15.55;;;6.25;;
24745;SDS011;12845;52.042;6.838;2023-04-25T04:27:45;17.10;;;6.05;;
24745;SDS011;12845;52.042;6.838;2023-04-25T04:30:11;13.98;;;5.28;;
24745;SDS011;12845;52.042;6.838;2023-04-25T04:32:37;17.08;;;6.85;;
24745;SDS011;12845;52.042;6.838;2023-04-25T04:35:03;16.48;;;5.93;;
24745;SDS011;12845;52.042;6.838;2023-04-25T04:37:29;14.27;;;5.90;;
24745;SDS011;12845;52.042;6.838;2023-04-25T04:39:55;21.33;;;6.03;;
24745;SDS011;12845;52.042;6.838;2023-04-25T04:42:21;17.10;;;5.88;;
24745;SDS011;12845;52.042;6.838;2023-04-25T04:44:46;18.80;;;6.18;;
24745;SDS011;12845;52.042;6.838;2023-04-25T04:47:12;14.93;;;6.05;;
24745;SDS011;12845;52.042;6.838;2023-04-25T04:49:39;13.60;;;6.60;;
24745;SDS011;12845;52.042;6.838;2023-04-25T04:52:04;18.63;;;7.43;;
24745;SDS011;12845;52.042;6.838;2023-04-25T04:54:30;16.13;;;6.53;;
24745;SDS011;12845;52.042;6.838;2023-04-25T04:56:55;17.38;;;6.60;;
24745;SDS011;12845;52.042;6.838;2023-04-25T04:59:21;18.42;;;6.10;;
24745;SDS011;12845;52.042;6.838;2023-04-25T05:01:46;15.65;;;6.50;;
24745;SDS011;12845;52.042;6.838;2023-04-25T05:04:12;11.55;;;4.70;;
24745;SDS011;12845;52.042;6.838;2023-04-25T05:06:37;22.20;;;6.40;;
24745;SDS011;12845;52.042;6.838;2023-04-25T05:09:02;20.63;;;6.85;;
24745;SDS011;12845;52.042;6.838;2023-04-25T05:11:28;15.23;;;5.70;;
24745;SDS011;12845;52.042;6.838;2023-04-25T05:13:54;21.17;;;7.07;;
24745;SDS011;12845;52.042;6.838;2023-04-25T05:16:19;17.33;;;6.88;;
24745;SDS011;12845;52.042;6.838;2023-04-25T05:18:45;21.30;;;6.60;;
24745;SDS011;12845;52.042;6.838;2023-04-25T05:21:11;19.23;;;7.78;;
24745;SDS011;12845;52.042;6.838;2023-04-25T05:23:36;19.55;;;6.57;;
24745;SDS011;12845;52.042;6.838;2023-04-25T05:26:01;21.45;;;6.40;;
24745;SDS011;12845;52.042;6.838;2023-04-25T05:28:27;18.27;;;6.80;;
24745;SDS011;12845;52.042;6.838;2023-04-25T05:30:52;21.33;;;6.20;;
24745;SDS011;12845;52.042;6.838;2023-04-25T05:33:18;24.27;;;7.20;;
24745;SDS011;12845;52.042;6.838;2023-04-25T05:35:44;17.23;;;6.80;;
24745;SDS011;12845;52.042;6.838;2023-04-25T05:38:09;16.30;;;7.00;;
24745;SDS011;12845;52.042;6.838;2023-04-25T05:40:35;17.65;;;6.47;;
24745;SDS011;12845;52.042;6.838;2023-04-25T05:43:00;18.42;;;7.03;;
24745;SDS011;12845;52.042;6.838;2023-04-25T05:45:26;23.05;;;7.22;;
24745;SDS011;12845;52.042;6.838;2023-04-25T05:47:51;19.35;;;6.30;;
24745;SDS011;12845;52.042;6.838;2023-04-25T05:50:16;14.65;;;5.80;;
24745;SDS011;12845;52.042;6.838;2023-04-25T05:52:42;18.17;;;7.85;;
24745;SDS011;12845;52.042;6.838;2023-04-25T05:55:07;23.20;;;7.47;;
24745;SDS011;12845;52.042;6.838;2023-04-25T05:57:33;19.55;;;6.72;;
24745;SDS011;12845;52.042;6.838;2023-04-25T05:59:59;22.58;;;6.18;;
24745;SDS011;12845;52.042;6.838;2023-04-25T06:02:24;16.00;;;5.95;;
24745;SDS011;12845;52.042;6.838;2023-04-25T06:04:50;19.60;;;7.38;;
24745;SDS011;12845;52.042;6.838;2023-04-25T06:07:16;18.15;;;6.82;;
24745;SDS011;12845;52.042;6.838;2023-04-25T06:09:42;20.10;;;7.43;;
24745;SDS011;12845;52.042;6.838;2023-04-25T06:12:08;19.63;;;7.32;;
24745;SDS011;12845;52.042;6.838;2023-04-25T06:14:33;18.05;;;6.25;;
24745;SDS011;12845;52.042;6.838;2023-04-25T06:16:59;15.25;;;5.55;;
24745;SDS011;12845;52.042;6.838;2023-04-25T06:19:31;18.45;;;5.72;;
24745;SDS011;12845;52.042;6.838;2023-04-25T06:21:56;13.45;;;5.15;;
24745;SDS011;12845;52.042;6.838;2023-04-25T06:24:22;17.23;;;4.75;;
24745;SDS011;12845;52.042;6.838;2023-04-25T06:26:47;15.05;;;5.10;;
24745;SDS011;12845;52.042;6.838;2023-04-25T06:29:12;15.48;;;4.65;;
24745;SDS011;12845;52.042;6.838;2023-04-25T06:31:38;15.77;;;4.93;;
24745;SDS011;12845;52.042;6.838;2023-04-25T06:34:03;9.93;;;3.85;;
24745;SDS011;12845;52.042;6.838;2023-04-25T06:36:28;10.45;;;4.70;;
24745;SDS011;12845;52.042;6.838;2023-04-25T06:38:54;17.02;;;5.35;;
24745;SDS011;12845;52.042;6.838;2023-04-25T06:41:22;12.07;;;3.63;;
24745;SDS011;12845;52.042;6.838;2023-04-25T06:43:47;16.15;;;4.63;;
24745;SDS011;12845;52.042;6.838;2023-04-25T06:46:12;11.45;;;4.47;;
24745;SDS011;12845;52.042;6.838;2023-04-25T06:48:38;13.85;;;4.03;;
24745;SDS011;12845;52.042;6.838;2023-04-25T06:51:03;13.77;;;4.10;;
24745;SDS011;12845;52.042;6.838;2023-04-25T06:53:28;13.48;;;4.25;;
24745;SDS011;12845;52.042;6.838;2023-04-25T06:55:54;13.63;;;3.90;;
24745;SDS011;12845;52.042;6.838;2023-04-25T06:58:19;12.88;;;4.00;;
24745;SDS011;12845;52.042;6.838;2023-04-25T07:00:44;13.27;;;4.18;;
24745;SDS011;12845;52.042;6.838;2023-04-25T07:03:10;10.13;;;3.72;;
24745;SDS011;12845;52.042;6.838;2023-04-25T07:05:35;10.55;;;3.85;;
24745;SDS011;12845;52.042;6.838;2023-04-25T07:08:00;12.30;;;4.45;;
24745;SDS011;12845;52.042;6.838;2023-04-25T07:10:26;10.43;;;3.13;;
24745;SDS011;12845;52.042;6.838;2023-04-25T07:12:51;8.60;;;3.50;;
24745;SDS011;12845;52.042;6.838;2023-04-25T07:15:17;13.48;;;3.85;;
24745;SDS011;12845;52.042;6.838;2023-04-25T07:17:42;11.73;;;3.65;;
24745;SDS011;12845;52.042;6.838;2023-04-25T07:20:08;15.27;;;4.65;;
24745;SDS011;12845;52.042;6.838;2023-04-25T07:22:34;12.88;;;4.00;;
24745;SDS011;12845;52.042;6.838;2023-04-25T07:25:00;15.35;;;4.10;;
24745;SDS011;12845;52.042;6.838;2023-04-25T07:27:25;14.45;;;4.00;;
24745;SDS011;12845;52.042;6.838;2023-04-25T07:29:50;9.40;;;3.50;;
24745;SDS011;12845;52.042;6.838;2023-04-25T07:32:16;16.00;;;4.18;;
24745;SDS011;12845;52.042;6.838;2023-04-25T07:34:41;12.65;;;4.05;;
24745;SDS011;12845;52.042;6.838;2023-04-25T07:37:06;11.93;;;3.85;;
24745;SDS011;12845;52.042;6.838;2023-04-25T07:39:32;11.02;;;2.90;;
24745;SDS011;12845;52.042;6.838;2023-04-25T07:41:57;12.88;;;3.20;;
24745;SDS011;12845;52.042;6.838;2023-04-25T07:44:27;11.07;;;3.10;;
24745;SDS011;12845;52.042;6.838;2023-04-25T07:46:52;12.52;;;2.67;;
24745;SDS011;12845;52.042;6.838;2023-04-25T07:49:17;7.53;;;2.70;;
24745;SDS011;12845;52.042;6.838;2023-04-25T07:51:43;11.63;;;2.38;;
24745;SDS011;12845;52.042;6.838;2023-04-25T07:54:09;10.90;;;2.65;;
24745;SDS011;12845;52.042;6.838;2023-04-25T07:56:35;10.45;;;2.50;;
24745;SDS011;12845;52.042;6.838;2023-04-25T07:59:00;9.20;;;2.83;;
24745;SDS011;12845;52.042;6.838;2023-04-25T08:01:26;11.07;;;2.88;;
24745;SDS011;12845;52.042;6.838;2023-04-25T08:03:52;13.98;;;3.40;;
24745;SDS011;12845;52.042;6.838;2023-04-25T08:06:17;8.05;;;2.40;;
24745;SDS011;12845;52.042;6.838;2023-04-25T08:08:43;9.68;;;3.03;;
24745;SDS011;12845;52.042;6.838;2023-04-25T08:11:08;10.80;;;2.50;;
24745;SDS011;12845;52.042;6.838;2023-04-25T08:13:34;12.13;;;2.80;;
24745;SDS011;12845;52.042;6.838;2023-04-25T08:15:59;8.52;;;2.88;;
24745;SDS011;12845;52.042;6.838;2023-04-25T08:18:24;8.80;;;2.65;;
24745;SDS011;12845;52.042;6.838;2023-04-25T08:20:50;9.90;;;2.47;;
24745;SDS011;12845;52.042;6.838;2023-04-25T08:23:15;9.82;;;3.08;;
24745;SDS011;12845;52.042;6.838;2023-04-25T08:25:41;12.43;;;2.80;;
24745;SDS011;12845;52.042;6.838;2023-04-25T08:28:06;10.40;;;2.42;;
24745;SDS011;12845;52.042;6.838;2023-04-25T08:30:31;9.55;;;2.63;;
24745;SDS011;12845;52.042;6.838;2023-04-25T08:32:57;10.00;;;2.20;;
24745;SDS011;12845;52.042;6.838;2023-04-25T08:35:22;11.00;;;2.30;;
24745;SDS011;12845;52.042;6.838;2023-04-25T08:37:48;8.20;;;2.00;;
24745;SDS011;12845;52.042;6.838;2023-04-25T08:40:14;7.32;;;2.28;;
24745;SDS011;12845;52.042;6.838;2023-04-25T08:42:43;8.75;;;2.10;;
24745;SDS011;12845;52.042;6.838;2023-04-25T08:45:10;7.90;;;2.30;;
24745;SDS011;12845;52.042;6.838;2023-04-25T08:47:37;9.80;;;2.50;;
24745;SDS011;12845;52.042;6.838;2023-04-25T08:50:03;10.10;;;2.88;;
24745;SDS011;12845;52.042;6.838;2023-04-25T08:52:32;7.45;;;2.20;;
24745;SDS011;12845;52.042;6.838;2023-04-25T08:55:02;10.98;;;2.33;;
24745;SDS011;12845;52.042;6.838;2023-04-25T08:57:29;9.57;;;2.38;;
24745;SDS011;12845;52.042;6.838;2023-04-25T08:59:56;8.57;;;1.75;;
24745;SDS011;12845;52.042;6.838;2023-04-25T09:02:22;8.52;;;2.55;;
24745;SDS011;12845;52.042;6.838;2023-04-25T09:04:49;11.52;;;2.55;;
24745;SDS011;12845;52.042;6.838;2023-04-25T09:07:15;9.60;;;2.33;;
24745;SDS011;12845;52.042;6.838;2023-04-25T09:09:43;14.07;;;2.63;;
24745;SDS011;12845;52.042;6.838;2023-04-25T09:12:09;9.07;;;2.70;;
24745;SDS011;12845;52.042;6.838;2023-04-25T09:14:35;9.30;;;2.20;;
24745;SDS011;12845;52.042;6.838;2023-04-25T09:17:01;7.70;;;2.10;;
24745;SDS011;12845;52.042;6.838;2023-04-25T09:19:30;8.35;;;2.05;;
24745;SDS011;12845;52.042;6.838;2023-04-25T09:22:01;8.10;;;2.67;;
24745;SDS011;12845;52.042;6.838;2023-04-25T09:27:05;8.98;;;2.45;;
24745;SDS011;12845;52.042;6.838;2023-04-25T09:29:35;6.68;;;2.00;;
24745;SDS011;12845;52.042;6.838;2023-04-25T09:32:18;7.55;;;2.03;;
24745;SDS011;12845;52.042;6.838;2023-04-25T09:34:55;6.10;;;2.08;;
24745;SDS011;12845;52.042;6.838;2023-04-25T09:37:25;5.00;;;1.63;;
24745;SDS011;12845;52.042;6.838;2023-04-25T09:40:04;5.20;;;1.50;;
24745;SDS011;12845;52.042;6.838;2023-04-25T09:42:32;10.25;;;1.65;;
24745;SDS011;12845;52.042;6.838;2023-04-25T09:44:59;5.32;;;1.30;;
24745;SDS011;12845;52.042;6.838;2023-04-25T09:47:27;6.72;;;1.55;;
24745;SDS011;12845;52.042;6.838;2023-04-25T09:49:53;7.25;;;1.23;;
24745;SDS011;12845;52.042;6.838;2023-04-25T09:52:23;4.88;;;1.30;;
24745;SDS011;12845;52.042;6.838;2023-04-25T09:54:50;5.35;;;1.30;;
24745;SDS011;12845;52.042;6.838;2023-04-25T09:59:45;7.85;;;1.33;;
24745;SDS011;12845;52.042;6.838;2023-04-25T10:02:13;6.43;;;1.40;;
24745;SDS011;12845;52.042;6.838;2023-04-25T10:04:40;7.15;;;1.67;;
24745;SDS011;12845;52.042;6.838;2023-04-25T10:07:07;7.72;;;2.13;;
24745;SDS011;12845;52.042;6.838;2023-04-25T10:09:36;4.43;;;1.30;;
24745;SDS011;12845;52.042;6.838;2023-04-25T10:12:02;5.63;;;1.65;;
24745;SDS011;12845;52.042;6.838;2023-04-25T10:14:31;7.43;;;1.38;;
24745;SDS011;12845;52.042;6.838;2023-04-25T10:16:57;5.82;;;1.80;;
24745;SDS011;12845;52.042;6.838;2023-04-25T10:19:24;9.13;;;1.63;;
24745;SDS011;12845;52.042;6.838;2023-04-25T10:21:51;6.13;;;1.33;;
24745;SDS011;12845;52.042;6.838;2023-04-25T10:24:19;5.30;;;1.48;;
24745;SDS011;12845;52.042;6.838;2023-04-25T10:26:45;5.43;;;1.75;;
24745;SDS011;12845;52.042;6.838;2023-04-25T10:29:11;3.38;;;1.00;;
24745;SDS011;12845;52.042;6.838;2023-04-25T10:31:46;7.45;;;1.42;;
24745;SDS011;12845;52.042;6.838;2023-04-25T10:34:15;7.65;;;1.70;;
24745;SDS011;12845;52.042;6.838;2023-04-25T10:36:41;8.00;;;1.95;;
24745;SDS011;12845;52.042;6.838;2023-04-25T10:39:06;7.97;;;1.58;;
24745;SDS011;12845;52.042;6.838;2023-04-25T10:44:20;4.78;;;1.17;;
24745;SDS011;12845;52.042;6.838;2023-04-25T10:46:45;3.05;;;0.80;;
24745;SDS011;12845;52.042;6.838;2023-04-25T10:49:11;5.68;;;1.00;;
24745;SDS011;12845;52.042;6.838;2023-04-25T10:52:10;5.30;;;1.20;;
24745;SDS011;12845;52.042;6.838;2023-04-25T10:54:40;4.95;;;1.30;;
24745;SDS011;12845;52.042;6.838;2023-04-25T10:57:26;4.40;;;1.40;;
24745;SDS011;12845;52.042;6.838;2023-04-25T11:02:30;5.60;;;1.50;;
24745;SDS011;12845;52.042;6.838;2023-04-25T11:04:56;2.90;;;1.00;;
24745;SDS011;12845;52.042;6.838;2023-04-25T11:10:14;5.20;;;1.05;;
24745;SDS011;12845;52.042;6.838;2023-04-25T11:12:39;1.83;;;1.08;;
24745;SDS011;12845;52.042;6.838;2023-04-25T11:15:05;4.93;;;1.42;;
24745;SDS011;12845;52.042;6.838;2023-04-25T11:17:32;5.75;;;1.35;;
24745;SDS011;12845;52.042;6.838;2023-04-25T11:19:58;5.00;;;1.60;;
24745;SDS011;12845;52.042;6.838;2023-04-25T11:22:24;5.30;;;1.70;;
24745;SDS011;12845;52.042;6.838;2023-04-25T11:24:51;4.63;;;1.85;;
24745;SDS011;12845;52.042;6.838;2023-04-25T11:27:16;6.78;;;3.55;;
24745;SDS011;12845;52.042;6.838;2023-04-25T11:29:42;3.03;;;1.10;;
24745;SDS011;12845;52.042;6.838;2023-04-25T11:32:07;5.05;;;1.80;;
24745;SDS011;12845;52.042;6.838;2023-04-25T11:34:33;3.20;;;1.45;;
24745;SDS011;12845;52.042;6.838;2023-04-25T11:36:59;6.45;;;1.30;;
24745;SDS011;12845;52.042;6.838;2023-04-25T11:39:26;7.35;;;1.60;;
24745;SDS011;12845;52.042;6.838;2023-04-25T11:41:53;5.78;;;1.27;;
24745;SDS011;12845;52.042;6.838;2023-04-25T11:44:19;5.55;;;1.50;;
24745;SDS011;12845;52.042;6.838;2023-04-25T11:46:46;7.72;;;2.05;;
24745;SDS011;12845;52.042;6.838;2023-04-25T11:49:12;5.38;;;1.10;;
24745;SDS011;12845;52.042;6.838;2023-04-25T11:51:41;5.18;;;1.50;;
24745;SDS011;12845;52.042;6.838;2023-04-25T11:54:08;7.30;;;1.70;;
24745;SDS011;12845;52.042;6.838;2023-04-25T11:56:33;7.45;;;2.03;;
24745;SDS011;12845;52.042;6.838;2023-04-25T11:59:00;3.65;;;1.35;;
24745;SDS011;12845;52.042;6.838;2023-04-25T12:03:53;6.30;;;1.60;;
24745;SDS011;12845;52.042;6.838;2023-04-25T12:06:18;4.70;;;1.80;;
24745;SDS011;12845;52.042;6.838;2023-04-25T12:11:26;6.55;;;1.30;;
24745;SDS011;12845;52.042;6.838;2023-04-25T12:13:52;5.05;;;1.35;;
24745;SDS011;12845;52.042;6.838;2023-04-25T12:16:18;4.85;;;1.15;;
24745;SDS011;12845;52.042;6.838;2023-04-25T12:18:43;6.82;;;2.03;;
24745;SDS011;12845;52.042;6.838;2023-04-25T12:21:09;6.43;;;1.48;;
24745;SDS011;12845;52.042;6.838;2023-04-25T12:23:34;6.78;;;1.67;;
24745;SDS011;12845;52.042;6.838;2023-04-25T12:26:04;6.72;;;1.77;;
24745;SDS011;12845;52.042;6.838;2023-04-25T12:28:31;4.25;;;1.20;;
24745;SDS011;12845;52.042;6.838;2023-04-25T12:31:02;4.43;;;1.30;;
24745;SDS011;12845;52.042;6.838;2023-04-25T12:33:32;3.35;;;1.23;;
24745;SDS011;12845;52.042;6.838;2023-04-25T12:35:59;3.80;;;1.40;;
24745;SDS011;12845;52.042;6.838;2023-04-25T12:38:28;5.82;;;1.30;;
24745;SDS011;12845;52.042;6.838;2023-04-25T12:40:55;7.90;;;1.60;;
24745;SDS011;12845;52.042;6.838;2023-04-25T12:43:22;3.42;;;1.33;;
24745;SDS011;12845;52.042;6.838;2023-04-25T12:45:48;3.75;;;1.13;;
24745;SDS011;12845;52.042;6.838;2023-04-25T12:48:15;6.30;;;1.25;;
24745;SDS011;12845;52.042;6.838;2023-04-25T12:50:40;4.63;;;1.02;;
24745;SDS011;12845;52.042;6.838;2023-04-25T12:53:06;7.05;;;1.48;;
24745;SDS011;12845;52.042;6.838;2023-04-25T12:55:31;5.18;;;1.52;;
24745;SDS011;12845;52.042;6.838;2023-04-25T12:57:57;6.88;;;1.88;;
24745;SDS011;12845;52.042;6.838;2023-04-25T13:00:22;4.38;;;1.73;;
24745;SDS011;12845;52.042;6.838;2023-04-25T13:02:47;5.00;;;1.85;;
24745;SDS011;12845;52.042;6.838;2023-04-25T13:05:13;6.38;;;1.88;;
24745;SDS011;12845;52.042;6.838;2023-04-25T13:07:38;5.97;;;1.80;;
24745;SDS011;12845;52.042;6.838;2023-04-25T13:10:04;5.10;;;1.73;;
24745;SDS011;12845;52.042;6.838;2023-04-25T13:12:30;4.32;;;1.30;;
24745;SDS011;12845;52.042;6.838;2023-04-25T13:14:56;6.40;;;1.63;;
24745;SDS011;12845;52.042;6.838;2023-04-25T13:17:21;5.72;;;1.77;;
24745;SDS011;12845;52.042;6.838;2023-04-25T13:19:47;5.97;;;1.58;;
24745;SDS011;12845;52.042;6.838;2023-04-25T13:22:12;2.80;;;1.10;;
24745;SDS011;12845;52.042;6.838;2023-04-25T13:24:40;6.65;;;1.70;;
24745;SDS011;12845;52.042;6.838;2023-04-25T13:27:05;5.45;;;1.50;;
24745;SDS011;12845;52.042;6.838;2023-04-25T13:29:31;6.03;;;1.15;;
24745;SDS011;12845;52.042;6.838;2023-04-25T13:31:59;3.17;;;0.90;;
24745;SDS011;12845;52.042;6.838;2023-04-25T13:34:24;4.55;;;1.45;;
24745;SDS011;12845;52.042;6.838;2023-04-25T13:36:50;5.05;;;1.27;;
24745;SDS011;12845;52.042;6.838;2023-04-25T13:39:15;6.90;;;1.55;;
24745;SDS011;12845;52.042;6.838;2023-04-25T13:41:41;8.30;;;1.63;;
24745;SDS011;12845;52.042;6.838;2023-04-25T13:44:06;4.68;;;1.10;;
24745;SDS011;12845;52.042;6.838;2023-04-25T13:46:31;9.00;;;1.45;;
24745;SDS011;12845;52.042;6.838;2023-04-25T13:48:57;4.40;;;1.20;;
24745;SDS011;12845;52.042;6.838;2023-04-25T13:51:22;7.10;;;1.90;;
24745;SDS011;12845;52.042;6.838;2023-04-25T13:53:47;6.00;;;1.65;;
24745;SDS011;12845;52.042;6.838;2023-04-25T13:56:13;3.60;;;1.10;;
24745;SDS011;12845;52.042;6.838;2023-04-25T13:58:38;5.95;;;1.67;;
24745;SDS011;12845;52.042;6.838;2023-04-25T14:01:04;3.70;;;1.20;;
24745;SDS011;12845;52.042;6.838;2023-04-25T14:03:30;5.50;;;1.17;;
24745;SDS011;12845;52.042;6.838;2023-04-25T14:05:55;4.80;;;1.00;;
24745;SDS011;12845;52.042;6.838;2023-04-25T14:08:21;4.03;;;1.00;;
24745;SDS011;12845;52.042;6.838;2023-04-25T14:10:46;4.32;;;1.20;;
24745;SDS011;12845;52.042;6.838;2023-04-25T14:13:11;3.28;;;1.10;;
24745;SDS011;12845;52.042;6.838;2023-04-25T14:15:37;4.95;;;1.15;;
24745;SDS011;12845;52.042;6.838;2023-04-25T14:18:02;3.58;;;1.00;;
24745;SDS011;12845;52.042;6.838;2023-04-25T14:20:28;4.78;;;1.00;;
24745;SDS011;12845;52.042;6.838;2023-04-25T14:22:53;3.17;;;1.27;;
24745;SDS011;12845;52.042;6.838;2023-04-25T14:25:21;4.22;;;1.00;;
24745;SDS011;12845;52.042;6.838;2023-04-25T14:27:46;4.93;;;0.80;;
24745;SDS011;12845;52.042;6.838;2023-04-25T14:30:15;3.55;;;1.08;;
24745;SDS011;12845;52.042;6.838;2023-04-25T14:32:41;3.25;;;1.00;;
24745;SDS011;12845;52.042;6.838;2023-04-25T14:35:06;6.40;;;1.58;;
24745;SDS011;12845;52.042;6.838;2023-04-25T14:37:32;8.18;;;1.60;;
24745;SDS011;12845;52.042;6.838;2023-04-25T14:39:58;2.50;;;1.05;;
24745;SDS011;12845;52.042;6.838;2023-04-25T14:42:23;5.50;;;1.27;;
24745;SDS011;12845;52.042;6.838;2023-04-25T14:44:48;5.45;;;1.20;;
24745;SDS011;12845;52.042;6.838;2023-04-25T14:47:14;2.70;;;1.10;;
24745;SDS011;12845;52.042;6.838;2023-04-25T14:49:40;4.45;;;1.27;;
24745;SDS011;12845;52.042;6.838;2023-04-25T14:52:06;3.70;;;1.40;;